Latest Weather Observations for Mandurah

IDW60801

Issued at 4:40 pm WST Sunday 1 February 2015 (issued every 30 minutes, with the page automatically refreshed every 10 minutes)

About weather observations | Map of weather stations | Latest weather observations for WA | Other Formats
Station Details ID: 009977 Name: MANDURAH Lat: -32.52 Lon: 115.71 Height: 3.0 m
Data from the previous 72 hours. | See also: Recent months at Mandurah
Date/Time
WST
Temp
°C
App
Temp
°C
Dew
Point
Rel
Hum
%
Delta-T
°C
Wind Press
QNH
hPa
Press
MSL
hPa
Rain
since 9 am
mm
Dir
 
Spd
km/h
Gust
km/h
Spd
kts
Gust
kts
01/04:30pm 33.1 31.2 10.4 25 13.1 N 11 24 6 13 1010.9 1010.9 0.0
01/04:00pm 32.5 31.5 12.2 29 12.0 NNE 9 15 5 8 1011.3 1011.3 0.0
01/03:30pm 33.9 32.8 10.5 24 13.6 ENE 7 13 4 7 1011.7 1011.7 0.0
01/03:00pm 33.5 31.1 10.2 24 13.4 ENE 13 17 7 9 1012.2 1012.2 0.0
01/02:30pm 32.3 30.0 10.4 26 12.6 E 13 24 7 13 1012.4 1012.4 0.0
01/02:00pm 32.3 29.0 10.9 27 12.4 ENE 19 28 10 15 1012.8 1012.8 0.0
01/01:30pm 31.2 27.8 10.5 28 11.9 E 19 30 10 16 1013.0 1013.0 0.0
01/01:00pm 30.6 27.4 11.1 30 11.2 E 19 30 10 16 1013.2 1013.2 0.0
01/12:30pm 28.2 26.0 12.1 37 9.3 ESE 15 24 8 13 1013.5 1013.5 0.0
01/12:00pm 26.9 24.6 11.8 39 8.7 ESE 15 24 8 13 1014.0 1014.0 0.0
01/11:30am 26.3 23.7 12.0 41 8.2 E 17 26 9 14 1014.3 1014.3 0.0
01/11:00am 25.9 23.2 11.6 40 8.1 E 17 26 9 14 1014.7 1014.7 0.0
01/10:30am 25.0 22.9 11.2 42 7.8 E 13 19 7 10 1015.0 1015.0 0.0
01/10:00am 24.8 22.9 11.7 44 7.4 E 13 26 7 14 1015.2 1015.2 0.0
01/09:30am 25.0 23.0 11.6 43 7.6 E 13 20 7 11 1015.1 1015.1 0.0
01/09:00am 24.4 22.6 12.0 46 7.0 E 13 26 7 14 1014.5 1014.5 0.0
01/08:30am 23.3 20.1 11.4 47 6.7 ESE 19 28 10 15 1014.4 1014.4 0.0
01/08:00am 23.0 19.4 11.7 49 6.3 ESE 22 35 12 19 1014.3 1014.3 0.0
01/07:30am 22.3 19.2 11.7 51 5.9 ESE 19 33 10 18 1014.2 1014.2 0.0
01/07:00am 21.4 18.3 11.7 54 5.4 ESE 19 30 10 16 1014.2 1014.2 0.0
01/06:30am 21.1 18.8 11.7 55 5.2 ESE 15 22 8 12 1014.4 1014.4 0.0
01/06:00am 20.9 19.1 12.1 57 4.9 ESE 13 20 7 11 1014.2 1014.2 0.0
01/05:30am 20.8 18.5 11.7 56 5.1 ESE 15 20 8 11 1013.9 1013.9 0.0
01/05:00am 20.6 18.6 11.5 56 5.0 E 13 22 7 12 1013.9 1013.9 0.0
01/04:30am 20.6 18.2 11.5 56 5.0 ESE 15 20 8 11 1013.9 1013.9 0.0
01/04:00am 20.7 17.4 11.6 56 5.0 ESE 20 30 11 16 1013.7 1013.7 0.0
01/03:30am 21.0 18.2 11.3 54 5.4 ESE 17 28 9 15 1014.2 1014.2 0.0
01/03:00am 21.1 18.3 11.4 54 5.4 ESE 17 30 9 16 1013.8 1013.8 0.0
01/02:30am 21.6 18.2 11.3 52 5.7 ESE 20 30 11 16 1013.3 1013.3 0.0
01/02:00am 22.1 18.7 11.2 50 6.0 ESE 20 30 11 16 1013.0 1013.0 0.0
01/01:30am 23.1 20.1 10.5 45 6.9 SE 17 30 9 16 1012.8 1012.8 0.0
01/01:00am 23.8 20.3 10.1 42 7.5 SE 19 28 10 15 1012.8 1012.8 0.0
01/12:30am 24.4 21.2 9.9 40 8.0 SE 17 24 9 13 1012.9 1012.9 0.0
01/12:00am 24.9 21.1 9.2 37 8.5 ESE 19 30 10 16 1013.2 1013.2 0.0
 
Date/Time
WST
Temp
°C
App
Temp
°C
Dew
Point
Rel
Hum
%
Delta-T
°C
Wind Press
QNH
hPa
Press
MSL
hPa
Rain
since 9 am
mm
Dir
 
Spd
km/h
Gust
km/h
Spd
kts
Gust
kts
31/11:30pm 25.6 21.6 9.0 35 9.0 ESE 20 30 11 16 1013.5 1013.5 0.0
31/11:00pm 26.1 21.6 8.6 33 9.5 ESE 22 37 12 20 1013.8 1013.8 0.0
31/10:30pm 26.8 22.8 8.3 31 10.0 ESE 19 26 10 14 1013.9 1013.9 0.0
31/10:00pm 27.2 23.1 8.6 31 10.1 ESE 20 33 11 18 1013.8 1013.8 0.0
31/09:30pm 27.7 23.8 9.5 32 10.1 ESE 20 33 11 18 1013.8 1013.8 0.0
31/09:00pm 28.3 24.3 9.1 30 10.6 SE 20 32 11 17 1013.6 1013.6 0.0
31/08:30pm 29.0 25.6 9.2 29 11.0 ESE 17 26 9 14 1013.8 1013.8 0.0
31/08:00pm 29.2 25.8 9.3 29 11.1 ESE 17 22 9 12 1013.3 1013.3 0.0
31/07:30pm 29.7 26.3 9.3 28 11.4 ESE 17 28 9 15 1012.9 1012.9 0.0
31/07:00pm 30.2 26.9 9.7 28 11.5 ESE 17 28 9 15 1012.8 1012.8 0.0
31/06:30pm 30.9 27.9 9.2 26 12.2 ESE 15 28 8 15 1012.6 1012.6 0.0
31/06:00pm 31.4 27.3 7.8 23 13.0 ENE 19 28 10 15 1012.6 1012.6 0.0
31/05:30pm 31.7 28.2 8.7 24 12.8 E 17 24 9 13 1012.4 1012.4 0.0
31/05:00pm 32.8 29.2 8.3 22 13.7 E 17 30 9 16 1012.6 1012.6 0.0
31/04:30pm 31.7 27.8 8.7 24 12.8 ESE 19 30 10 16 1012.7 1012.7 0.0
31/04:00pm 32.2 28.3 7.1 21 13.7 E 17 24 9 13 1012.8 1012.8 0.0
31/03:30pm 32.0 27.7 7.0 21 13.6 ESE 19 39 10 21 1012.9 1012.9 0.0
31/03:00pm 31.9 28.0 6.9 21 13.6 ESE 17 28 9 15 1013.0 1013.0 0.0
31/02:30pm 32.2 27.8 4.9 18 14.4 E 17 33 9 18 1013.0 1013.0 0.0
31/02:00pm 31.4 28.0 7.8 23 13.0 ESE 15 26 8 14 1012.9 1012.9 0.0
31/01:30pm 31.6 27.0 6.6 21 13.5 ESE 20 32 11 17 1013.5 1013.5 0.0
31/01:00pm 32.6 28.6 8.1 22 13.6 E 19 33 10 18 1013.7 1013.7 0.0
31/12:30pm 31.4 27.8 8.4 24 12.8 E 17 30 9 16 1013.9 1013.9 0.0
31/12:00pm 30.8 26.5 7.9 24 12.6 E 20 35 11 19 1014.1 1014.1 0.0
31/11:30am 31.2 27.6 8.2 24 12.7 E 17 33 9 18 1014.3 1014.3 0.0
31/11:00am 30.4 27.3 8.7 26 12.0 E 15 28 8 15 1014.6 1014.6 0.0
31/10:30am 29.1 25.9 9.8 30 10.8 E 17 26 9 14 1014.6 1014.6 0.0
31/10:00am 27.6 24.3 9.4 32 10.1 E 17 37 9 20 1014.8 1014.8 0.0
31/09:30am 26.6 23.6 10.7 37 8.9 E 17 28 9 15 1014.8 1014.8 0.0
31/09:00am 24.9 20.9 10.4 40 8.0 E 22 35 12 19 1014.8 1014.8 0.0
31/08:30am 23.8 20.5 11.5 46 6.9 E 20 32 11 17 1014.9 1014.9 0.0
31/08:00am 22.9 20.9 11.6 49 6.3 E 13 20 7 11 1015.0 1015.0 0.0
31/07:30am 21.7 19.1 12.0 54 5.4 ESE 17 24 9 13 1014.9 1014.9 0.0
31/07:00am 20.9 20.0 11.5 55 5.2 ESE 7 11 4 6 1015.0 1015.0 0.0
31/06:30am 20.3 19.0 11.2 56 5.0 SE 9 17 5 9 1014.9 1014.9 0.0
31/06:00am 20.1 19.1 11.1 56 4.9 SE 7 13 4 7 1014.5 1014.5 0.0
31/05:30am 20.2 18.8 10.9 55 5.1 SSE 9 24 5 13 1014.2 1014.2 0.0
31/05:00am 20.3 17.8 11.0 55 5.1 ESE 15 22 8 12 1013.9 1013.9 0.0
31/04:30am 20.6 16.6 10.4 52 5.5 E 22 37 12 20 1013.5 1013.5 0.0
31/04:00am 20.8 16.7 10.0 50 5.8 E 22 33 12 18 1013.6 1013.6 0.0
31/03:30am 21.2 16.9 9.4 47 6.3 E 22 39 12 21 1013.5 1013.5 0.0
31/03:00am 21.4 16.8 9.6 47 6.3 E 24 41 13 22 1013.3 1013.3 0.0
31/02:30am 22.0 18.3 9.5 45 6.7 E 19 32 10 17 1013.1 1013.1 0.0
31/02:00am 22.6 18.0 9.7 44 7.0 ESE 24 37 13 20 1012.9 1012.9 0.0
31/01:30am 23.4 18.7 9.4 41 7.6 ESE 24 39 13 21 1013.0 1013.0 0.0
31/01:00am 24.1 19.1 9.7 40 7.9 ESE 26 39 14 21 1013.1 1013.1 0.0
31/12:30am 25.0 20.7 9.3 37 8.5 ESE 22 37 12 20 1013.2 1013.2 0.0
31/12:00am 25.7 21.0 9.1 35 9.0 ESE 24 39 13 21 1013.0 1013.0 0.0
 
Date/Time
WST
Temp
°C
App
Temp
°C
Dew
Point
Rel
Hum
%
Delta-T
°C
Wind Press
QNH
hPa
Press
MSL
hPa
Rain
since 9 am
mm
Dir
 
Spd
km/h
Gust
km/h
Spd
kts
Gust
kts
30/11:30pm 26.8 22.5 9.2 33 9.7 ESE 22 37 12 20 1012.9 1012.9 0.0
30/11:00pm 27.8 23.2 8.1 29 10.7 ESE 22 33 12 18 1013.0 1013.0 0.0
30/10:30pm 28.8 24.6 7.4 26 11.5 ESE 19 32 10 17 1012.8 1012.8 0.0
30/10:00pm 29.8 25.3 7.1 24 12.2 ESE 20 32 11 17 1012.6 1012.6 0.0
30/09:30pm 30.8 26.9 7.3 23 12.8 ESE 17 28 9 15 1012.4 1012.4 0.0
30/09:00pm 31.7 26.8 6.7 21 13.5 ESE 22 35 12 19 1012.1 1012.1 0.0
30/08:30pm 32.1 29.6 9.6 25 12.8 SE 13 20 7 11 1011.5 1011.5 0.0
30/08:00pm 31.9 30.7 12.7 31 11.4 SSE 11 17 6 9 1011.1 1011.1 0.0
30/07:30pm 31.7 31.2 12.0 30 11.6 SSW 6 9 3 5 1010.6 1010.6 0.0
30/07:00pm 32.0 31.5 12.8 31 11.5 SSW 7 11 4 6 1010.3 1010.3 0.0
30/06:30pm 32.5 32.0 12.7 30 11.8 WSW 7 9 4 5 1010.0 1010.0 0.0
30/06:00pm 32.0 31.3 14.2 34 10.8 WSW 11 15 6 8 1009.8 1009.8 0.0
30/05:30pm 31.2 30.5 14.4 36 10.2 W 11 13 6 7 1009.7 1009.7 0.0
30/05:00pm 31.2 31.8 16.8 42 9.1 WNW 9 13 5 7 1009.8 1009.8 0.0
30/04:30pm 30.3 30.4 18.4 49 7.7 NW 15 19 8 10 1009.7 1009.7 0.0
30/04:00pm 31.4 31.4 18.0 44 8.6 NNW 15 20 8 11 1009.9 1009.9 0.0
30/03:51pm 32.3 31.8 17.7 41 9.4 NNE 17 24 9 13 1010.0 1010.0 0.0
30/03:30pm 37.9 35.2 11.8 21 15.7 ENE 17 28 9 15 1010.1 1010.1 0.0
30/03:00pm 39.1 34.9 5.7 13 18.5 ENE 17 32 9 17 1010.1 1010.1 0.0
30/02:30pm 39.4 34.6 4.7 12 18.9 E 19 32 10 17 1010.3 1010.3 0.0
30/02:00pm 39.2 35.0 5.7 13 18.5 ENE 17 26 9 14 1010.3 1010.3 0.0
30/01:30pm 38.0 32.4 8.7 17 16.8 NE 28 39 15 21 1010.4 1010.4 0.0
30/01:00pm 38.8 35.8 7.5 15 17.7 ENE 13 24 7 13 1010.4 1010.4 0.0
30/12:30pm 38.4 34.4 8.1 16 17.3 E 19 30 10 16 1010.7 1010.7 0.0
30/12:00pm 37.5 34.3 10.0 19 16.1 ESE 17 28 9 15 1010.9 1010.9 0.0
30/11:30am 33.7 31.9 10.9 25 13.3 SE 11 19 6 10 1011.3 1011.3 0.0
30/11:00am 33.8 31.5 10.4 24 13.5 E 13 22 7 12 1011.7 1011.7 0.0
30/10:30am 34.6 32.9 11.1 24 13.8 E 11 22 6 12 1011.8 1011.8 0.0
30/10:00am 33.0 31.6 12.1 28 12.4 E 11 20 6 11 1011.8 1011.8 0.0
30/09:30am 31.5 30.0 11.8 30 11.5 ESE 11 26 6 14 1011.8 1011.8 0.0
30/09:00am 29.3 27.0 11.8 34 10.2 SE 15 24 8 13 1011.8 1011.8 0.0
30/08:30am 27.6 25.4 12.0 38 9.0 SE 15 22 8 12 1011.7 1011.7 0.0
30/08:00am 26.7 24.1 12.0 40 8.5 SE 17 28 9 15 1011.7 1011.7 0.0
30/07:30am 24.8 24.0 13.0 47 6.8 SE 9 19 5 10 1011.8 1011.8 0.0
30/07:00am 23.9 23.7 13.7 53 6.0 SSE 7 11 4 6 1011.7 1011.7 0.0
30/06:30am 23.3 22.2 14.3 57 5.3 S 13 19 7 10 1011.3 1011.3 0.0
30/06:00am 23.5 22.3 13.9 55 5.6 S 13 19 7 10 1011.1 1011.1 0.0
30/05:30am 23.7 22.8 13.6 53 5.9 S 11 20 6 11 1010.9 1010.9 0.0
30/05:00am 24.1 23.3 13.9 53 6.0 SSE 11 17 6 9 1010.8 1010.8 0.0
30/04:30am 24.3 23.4 13.8 52 6.2 SSE 11 19 6 10 1010.3 1010.3 0.0
30/04:00am 24.5 22.1 13.7 51 6.3 SSE 19 26 10 14 1010.3 1010.3 0.0
30/03:30am 24.4 23.8 14.5 54 5.9 SSE 11 20 6 11 1010.2 1010.2 0.0
30/03:00am 25.2 24.4 12.8 46 7.2 SE 9 17 5 9 1010.2 1010.2 0.0
30/02:30am 25.8 24.6 11.6 41 8.1 SE 9 15 5 8 1010.2 1010.2 0.0
30/02:00am 25.7 25.4 14.5 50 6.7 SSE 9 17 5 9 1010.3 1010.3 0.0
30/01:30am 25.0 25.4 14.8 53 6.1 S 6 9 3 5 1010.3 1010.3 0.0
30/01:00am 25.3 26.2 15.0 53 6.2 S 4 7 2 4 1010.3 1010.3 0.0
30/12:30am 25.4 24.8 14.5 51 6.5 SSE 11 17 6 9 1009.8 1009.8 0.0
30/12:00am 25.8 23.7 13.6 47 7.2 SSE 17 26 9 14 1009.7 1009.7 0.0
 
Date/Time
WST
Temp
°C
App
Temp
°C
Dew
Point
Rel
Hum
%
Delta-T
°C
Wind Press
QNH
hPa
Press
MSL
hPa
Rain
since 9 am
mm
Dir
 
Spd
km/h
Gust
km/h
Spd
kts
Gust
kts
29/11:30pm 25.9 23.7 13.4 46 7.3 S 17 24 9 13 1009.9 1009.9 0.0
29/11:00pm 26.5 25.5 14.6 48 7.1 SSE 13 17 7 9 1009.9 1009.9 0.0
29/10:30pm 27.3 25.9 13.3 42 8.2 SSE 13 19 7 10 1009.6 1009.6 0.0
29/10:00pm 27.6 25.9 13.5 41 8.4 SSE 15 24 8 13 1009.6 1009.6 0.0
29/09:30pm 28.9 25.3 11.9 35 9.9 SSE 22 35 12 19 1009.4 1009.4 0.0
29/09:00pm 29.4 27.8 11.5 33 10.4 SE 11 20 6 11 1009.3 1009.3 0.0
29/08:30pm 30.0 28.6 13.3 36 9.9 SSE 13 19 7 10 1009.0 1009.0 0.0
29/08:00pm 30.2 29.5 12.1 32 10.6 SE 7 13 4 7 1008.9 1008.9 0.0
29/07:30pm 28.6 30.2 19.2 56 6.1 S 9 17 5 9 1008.5 1008.5 0.0
29/07:00pm 28.7 29.0 18.8 55 6.4 SSW 15 22 8 12 1007.9 1007.9 0.0
29/06:30pm 29.6 29.1 18.7 52 7.0 S 19 28 10 15 1007.7 1007.7 0.0
29/06:00pm 29.6 28.8 18.4 51 7.2 S 20 32 11 17 1007.6 1007.6 0.0
29/05:30pm 29.9 28.0 17.7 48 7.8 SSW 24 35 13 19 1007.0 1007.0 0.0
29/05:00pm 30.6 29.6 18.0 47 8.1 S 20 33 11 18 1007.0 1007.0 0.0

Other Formats:

Comma delimited format used in spreadsheet applications
http://www.bom.gov.au/fwo/IDW60801/IDW60801.94605.axf

JavaScript Object Notation format (JSON) in row-major order
http://www.bom.gov.au/fwo/IDW60801/IDW60801.94605.json